createdAt,value
2022-08-03T00:01:28.348Z,147774.03
2022-08-03T00:03:55.475Z,147744.66
2022-08-03T00:06:22.539Z,147725.13
2022-08-03T00:08:49.678Z,147639.53
2022-08-03T00:11:16.715Z,147734.91
2022-08-03T00:13:44.044Z,147725.13
2022-08-03T00:16:11.230Z,147712.84
2022-08-03T00:18:38.291Z,147706.75
2022-08-03T00:21:05.962Z,147633.44
2022-08-03T00:23:52.048Z,147624.88
2022-08-03T00:26:20.931Z,147683.53
2022-08-03T00:28:48.853Z,147589.44
2022-08-03T00:31:16.242Z,147629.75
2022-08-03T00:33:59.468Z,147642.00
2022-08-03T00:36:30.323Z,147584.56
2022-08-03T00:38:57.543Z,147610.22
2022-08-03T00:41:24.701Z,147605.34
2022-08-03T00:43:51.864Z,147593.13
2022-08-03T00:46:21.758Z,147549.16
2022-08-03T00:48:50.454Z,147576.00
2022-08-03T00:51:19.126Z,147567.50
2022-08-03T00:53:46.208Z,147551.59
2022-08-03T00:56:16.990Z,147527.16
2022-08-03T00:58:46.091Z,147546.69
2022-08-03T01:01:14.211Z,147534.47
2022-08-03T01:03:41.725Z,147524.72
2022-08-03T01:06:31.129Z,147507.59
2022-08-03T01:09:12.179Z,147502.72
2022-08-03T01:12:10.835Z,147485.59
2022-08-03T01:15:04.014Z,147490.53
2022-08-03T01:17:51.409Z,147474.59
2022-08-03T01:20:22.210Z,147466.03
2022-08-03T01:23:00.620Z,147445.28
2022-08-03T01:25:46.203Z,147484.34
2022-08-03T01:28:37.165Z,147473.38
2022-08-03T01:31:08.322Z,147461.16
2022-08-03T01:33:39.152Z,147439.22
2022-08-03T01:36:13.047Z,147457.53
2022-08-03T01:38:49.397Z,147453.84
2022-08-03T01:41:22.537Z,147415.97
2022-08-03T01:44:27.652Z,147420.88
2022-08-03T01:46:40.429Z,147381.78
2022-08-03T01:49:15.997Z,147400.09
2022-08-03T01:51:58.401Z,147385.47
2022-08-03T01:54:40.822Z,147375.72
2022-08-03T01:57:09.641Z,147368.34
2022-08-03T01:59:38.695Z,147358.59
2022-08-03T02:02:32.060Z,147342.72
2022-08-03T02:04:58.286Z,147348.84
2022-08-03T02:07:28.959Z,147348.84
2022-08-03T02:09:58.320Z,147361.03
2022-08-03T02:12:28.210Z,147356.13
2022-08-03T02:14:57.658Z,147331.72
2022-08-03T02:17:38.669Z,147351.25
2022-08-03T02:20:10.812Z,147300.00
2022-08-03T02:22:43.577Z,147329.31
2022-08-03T02:25:13.439Z,147328.06
2022-08-03T02:27:48.658Z,147307.34
2022-08-03T02:30:15.938Z,147286.56
2022-08-03T02:32:51.455Z,147290.22
2022-08-03T02:35:20.972Z,147298.78
2022-08-03T02:37:52.288Z,147296.31
2022-08-03T02:40:21.390Z,147300.00
2022-08-03T02:42:53.198Z,147302.47
2022-08-03T02:45:21.212Z,147230.38
2022-08-03T02:47:54.279Z,147210.88
2022-08-03T02:50:23.440Z,147304.88
2022-08-03T02:52:51.926Z,147258.50
2022-08-03T02:55:21.558Z,147236.47
2022-08-03T02:57:49.862Z,147248.75
2022-08-03T03:00:27.195Z,147220.63
2022-08-03T03:02:58.460Z,147234.06
2022-08-03T03:05:53.655Z,147147.41
2022-08-03T03:08:17.771Z,147231.59
2022-08-03T03:10:47.061Z,147207.19
2022-08-03T03:13:16.001Z,147213.28
2022-08-03T03:15:45.165Z,147207.19
2022-08-03T03:18:15.921Z,147158.38
2022-08-03T03:20:47.677Z,147186.44
2022-08-03T03:23:15.411Z,147194.97
2022-08-03T03:25:43.498Z,147187.69
2022-08-03T03:28:11.369Z,147182.81
2022-08-03T03:30:38.608Z,147114.47
2022-08-03T03:33:05.782Z,147204.72
2022-08-03T03:35:38.967Z,147177.88
2022-08-03T03:38:07.200Z,147179.13
2022-08-03T03:40:38.444Z,147142.53
2022-08-03T03:43:10.514Z,147133.97
2022-08-03T03:45:40.465Z,147146.19
2022-08-03T03:48:08.372Z,147160.84
2022-08-03T03:50:37.448Z,147147.41
2022-08-03T03:53:04.859Z,147151.06
2022-08-03T03:55:32.071Z,147155.97
2022-08-03T03:57:59.849Z,147119.34
2022-08-03T04:00:26.985Z,147051.03
2022-08-03T04:02:54.049Z,147085.16
2022-08-03T04:05:42.961Z,147058.31
2022-08-03T04:08:35.366Z,147066.88
2022-08-03T04:11:14.831Z,147103.47
2022-08-03T04:14:05.037Z,147110.81
2022-08-03T04:16:43.819Z,147109.59
2022-08-03T04:19:18.533Z,147120.56
2022-08-03T04:21:57.285Z,147119.34
2022-08-03T04:24:30.331Z,147076.63
2022-08-03T04:26:59.466Z,147151.06
2022-08-03T04:29:29.073Z,147157.16
2022-08-03T04:31:59.827Z,147171.78
2022-08-03T04:34:30.793Z,147174.25
2022-08-03T04:37:00.453Z,147184.00
2022-08-03T04:39:29.902Z,147215.75
2022-08-03T04:42:08.223Z,147142.53
2022-08-03T04:44:40.365Z,147187.69
2022-08-03T04:47:08.523Z,147231.59
2022-08-03T04:49:38.080Z,147216.97
2022-08-03T04:52:07.963Z,147275.59
2022-08-03T04:54:40.415Z,147285.34
2022-08-03T04:57:07.565Z,147298.78
2022-08-03T04:59:39.094Z,147241.34
2022-08-03T05:02:08.058Z,147252.41
2022-08-03T05:04:35.109Z,147319.50
2022-08-03T05:07:11.728Z,147312.22
2022-08-03T05:09:50.549Z,147337.81
2022-08-03T05:12:20.064Z,147356.13
2022-08-03T05:14:47.172Z,147339.06
2022-08-03T05:17:14.642Z,147361.03
2022-08-03T05:19:41.658Z,147386.69
2022-08-03T05:22:08.701Z,147431.88
2022-08-03T05:24:35.752Z,147452.59
2022-08-03T05:27:02.801Z,147479.47
2022-08-03T05:29:29.834Z,147503.97
2022-08-03T05:31:56.957Z,147518.63
2022-08-03T05:34:24.024Z,147533.25
2022-08-03T05:36:51.085Z,147545.50
2022-08-03T05:39:18.121Z,147561.34
2022-08-03T05:41:45.206Z,147568.69
2022-08-03T05:44:12.245Z,147612.66
2022-08-03T05:46:39.308Z,147632.22
2022-08-03T05:49:06.507Z,147563.81
2022-08-03T05:51:33.605Z,147644.41
2022-08-03T05:54:00.666Z,147661.53
2022-08-03T05:56:27.741Z,147681.06
2022-08-03T05:58:54.921Z,147698.19
2022-08-03T06:01:22.506Z,147656.66
2022-08-03T06:03:50.759Z,147737.38
2022-08-03T06:06:18.746Z,147785.00
2022-08-03T06:08:46.615Z,147800.88
2022-08-03T06:11:13.714Z,147851.00
2022-08-03T06:13:41.098Z,147848.56
2022-08-03T06:16:08.505Z,147846.13
2022-08-03T06:18:36.215Z,147851.00
2022-08-03T06:21:14.042Z,147870.59
2022-08-03T06:23:54.055Z,147887.69
2022-08-03T06:26:27.615Z,147837.53
2022-08-03T06:28:55.229Z,147914.56
2022-08-03T06:31:25.824Z,147908.47
2022-08-03T06:34:35.150Z,147930.50
2022-08-03T06:36:39.981Z,147920.72
2022-08-03T06:39:08.246Z,148016.09
2022-08-03T06:41:37.676Z,148065.03
2022-08-03T06:44:12.397Z,148098.06
2022-08-03T06:46:39.789Z,148104.19
2022-08-03T06:49:07.577Z,148123.75
2022-08-03T06:52:04.977Z,148191.13
2022-08-03T06:54:22.257Z,148209.47
2022-08-03T06:56:49.464Z,148280.41
2022-08-03T07:00:08.893Z,148309.78
2022-08-03T07:02:03.884Z,148340.38
2022-08-03T07:04:30.893Z,148361.25
2022-08-03T07:06:58.460Z,148385.72
2022-08-03T07:09:26.641Z,148444.50
2022-08-03T07:11:55.035Z,148456.69
2022-08-03T07:14:22.085Z,148506.91
2022-08-03T07:16:49.167Z,148543.69
2022-08-03T07:19:16.615Z,148592.69
2022-08-03T07:21:43.679Z,148633.09
2022-08-03T07:24:10.747Z,148660.06
2022-08-03T07:26:37.811Z,148721.28
2022-08-03T07:29:11.773Z,148761.78
2022-08-03T07:31:42.686Z,148767.88
2022-08-03T07:34:09.816Z,148755.63
2022-08-03T07:36:37.092Z,148889.19
2022-08-03T07:41:45.865Z,148917.44
2022-08-03T07:44:13.237Z,149005.69
2022-08-03T07:46:40.367Z,149032.69
2022-08-03T07:49:07.510Z,149055.97
2022-08-03T07:51:34.851Z,149091.53
2022-08-03T07:54:02.076Z,149123.41
2022-08-03T07:56:29.510Z,149154.09
2022-08-03T07:58:56.860Z,149199.47
2022-08-03T08:01:24.231Z,149222.75
2022-08-03T08:03:52.410Z,149241.16
2022-08-03T08:06:21.888Z,149244.84
2022-08-03T08:08:48.941Z,149269.41
2022-08-03T08:11:15.969Z,149339.34
2022-08-03T08:13:43.016Z,149351.63
2022-08-03T08:16:10.018Z,149357.72
2022-08-03T08:18:37.053Z,149372.50
2022-08-03T08:21:04.215Z,149395.81
2022-08-03T08:23:42.353Z,149437.56
2022-08-03T08:26:12.181Z,149452.28
2022-08-03T08:28:39.842Z,149479.28
2022-08-03T08:31:06.958Z,149489.09
2022-08-03T08:34:02.743Z,149522.22
2022-08-03T08:36:22.147Z,149532.03
2022-08-03T08:38:49.240Z,149535.72
2022-08-03T08:41:16.885Z,149589.78
2022-08-03T08:43:43.941Z,149631.53
2022-08-03T08:46:13.142Z,149610.63
2022-08-03T08:48:51.943Z,149614.31
2022-08-03T08:51:20.589Z,149648.69
2022-08-03T08:53:53.643Z,149667.09
2022-08-03T08:56:25.296Z,149719.91
2022-08-03T08:58:57.942Z,149708.88
2022-08-03T09:01:25.463Z,149803.44
2022-08-03T09:03:54.100Z,149815.75
2022-08-03T09:06:22.807Z,149769.09
2022-08-03T09:08:49.917Z,149791.16
2022-08-03T09:11:22.202Z,149797.31
2022-08-03T09:14:10.205Z,149810.84
2022-08-03T09:17:05.144Z,149823.09
2022-08-03T09:19:34.351Z,149850.09
2022-08-03T09:22:10.825Z,149804.66
2022-08-03T09:25:14.735Z,149862.41
2022-08-03T09:27:44.780Z,149874.69
2022-08-03T09:30:19.120Z,149903.00
2022-08-03T09:33:08.320Z,149901.72
2022-08-03T09:35:53.939Z,149963.19
2022-08-03T09:38:24.155Z,149959.50
2022-08-03T09:40:55.943Z,150018.47
2022-08-03T09:43:27.414Z,150019.69
2022-08-03T09:46:03.673Z,150013.56
2022-08-03T09:48:34.621Z,150027.06
2022-08-03T09:52:11.021Z,150009.88
2022-08-03T09:53:58.885Z,150059.06
2022-08-03T09:56:40.025Z,150108.19
2022-08-03T09:59:07.981Z,150132.81
2022-08-03T10:01:35.912Z,150100.84
2022-08-03T10:04:05.170Z,150071.31
2022-08-03T10:06:32.774Z,150046.78
2022-08-03T10:09:11.575Z,150046.78
2022-08-03T10:11:42.147Z,150045.56
2022-08-03T10:14:11.325Z,150063.97
2022-08-03T10:16:40.197Z,150062.72
2022-08-03T10:19:08.377Z,150136.44
2022-08-03T10:21:38.465Z,150109.41
2022-08-03T10:24:07.483Z,150207.81
2022-08-03T10:26:49.873Z,150216.41
2022-08-03T10:29:24.985Z,150255.72
2022-08-03T10:31:58.721Z,150290.16
2022-08-03T10:34:28.980Z,150285.25
2022-08-03T10:36:58.781Z,150243.47
2022-08-03T10:39:29.174Z,150221.31
2022-08-03T10:41:58.720Z,150213.94
2022-08-03T10:44:37.066Z,150228.69
2022-08-03T10:47:05.002Z,150206.59
2022-08-03T10:49:34.738Z,150255.72
2022-08-03T10:52:12.905Z,150317.22
2022-08-03T10:55:03.290Z,150356.59
2022-08-03T10:57:43.358Z,150313.53
2022-08-03T11:00:20.222Z,150302.44
2022-08-03T11:03:06.532Z,150275.38
2022-08-03T11:05:44.920Z,150361.50
2022-08-03T11:08:20.981Z,150462.34
2022-08-03T11:10:49.609Z,150533.69
2022-08-03T11:13:20.251Z,150528.78
2022-08-03T11:15:49.965Z,150518.94
2022-08-03T11:18:17.505Z,150447.59
2022-08-03T11:20:46.233Z,150392.25
2022-08-03T11:23:14.851Z,150474.69
2022-08-03T11:26:14.013Z,150548.47
2022-08-03T11:28:44.439Z,150534.94
2022-08-03T11:31:48.599Z,150660.47
2022-08-03T11:34:14.390Z,150644.44
2022-08-03T11:37:21.401Z,150619.84
2022-08-03T11:39:51.128Z,150594.00
2022-08-03T11:42:23.905Z,150656.75
2022-08-03T11:44:56.463Z,150656.75
2022-08-03T11:47:26.818Z,150602.56
2022-08-03T11:50:00.564Z,150581.69
2022-08-03T11:52:34.977Z,150600.13
2022-08-03T11:55:02.301Z,150622.34
2022-08-03T11:59:15.214Z,150557.09
2022-08-03T12:00:25.856Z,150702.28
2022-08-03T12:03:01.757Z,150745.38
2022-08-03T12:05:51.297Z,150692.44
2022-08-03T12:08:31.322Z,150650.63
2022-08-03T12:11:00.544Z,150629.69
2022-08-03T12:14:28.931Z,150531.25
2022-08-03T12:16:29.753Z,150591.50
2022-08-03T12:19:00.116Z,150625.97
2022-08-03T12:21:27.682Z,150661.69
2022-08-03T12:24:02.795Z,150740.41
2022-08-03T12:26:42.260Z,150735.50
2022-08-03T12:29:17.212Z,150705.97
2022-08-03T12:31:44.373Z,150707.19
2022-08-03T12:34:11.985Z,150710.91
2022-08-03T12:36:49.678Z,150659.25
2022-08-03T12:39:17.235Z,150627.25
2022-08-03T12:41:44.841Z,150669.06
2022-08-03T12:44:11.894Z,150691.22
2022-08-03T12:46:46.991Z,150704.75
2022-08-03T12:49:17.260Z,150723.22
2022-08-03T12:51:44.349Z,150765.09
2022-08-03T12:54:24.846Z,150754.00
2022-08-03T12:57:07.525Z,150868.44
2022-08-03T12:59:41.188Z,150856.13
2022-08-03T13:02:19.019Z,150920.19
2022-08-03T13:04:47.848Z,150952.19
2022-08-03T13:07:16.378Z,150974.34
2022-08-03T13:09:57.510Z,151013.78
2022-08-03T13:12:27.365Z,151053.19
2022-08-03T13:14:59.645Z,151065.50
2022-08-03T13:17:26.813Z,151038.44
2022-08-03T13:19:54.331Z,151119.66
2022-08-03T13:22:23.893Z,151124.59
2022-08-03T13:24:55.793Z,151175.13
2022-08-03T13:28:03.156Z,151157.91
2022-08-03T13:30:11.295Z,151060.59
2022-08-03T13:32:38.434Z,151087.63
2022-08-03T13:35:06.658Z,151103.66
2022-08-03T13:37:34.423Z,151063.03
2022-08-03T13:40:03.029Z,151037.16
2022-08-03T13:42:33.358Z,151086.44
2022-08-03T13:45:01.237Z,151082.72
2022-08-03T13:47:28.585Z,151072.88
2022-08-03T13:50:01.032Z,151102.47
2022-08-03T13:52:36.103Z,151043.34
2022-08-03T13:55:06.164Z,150998.97
2022-08-03T13:58:02.615Z,151003.88
2022-08-03T14:00:28.052Z,151066.75
2022-08-03T14:03:03.979Z,151095.03
2022-08-03T14:05:35.687Z,151118.44
2022-08-03T14:08:05.304Z,151129.50
2022-08-03T14:10:34.290Z,151171.47
2022-08-03T14:13:01.407Z,151272.47
2022-08-03T14:15:28.708Z,151286.00
2022-08-03T14:17:58.471Z,151304.47
2022-08-03T14:20:37.799Z,151245.34
2022-08-03T14:23:14.187Z,151306.97
2022-08-03T14:25:50.021Z,151351.28
2022-08-03T14:28:23.088Z,151396.91
2022-08-03T14:30:54.483Z,151353.78
2022-08-03T14:33:22.419Z,151356.25
2022-08-03T14:35:49.930Z,151319.31
2022-08-03T14:38:18.005Z,151336.50
2022-08-03T14:40:45.272Z,151353.78
2022-08-03T14:43:12.523Z,151233.03
2022-08-03T14:45:40.335Z,151330.38
2022-08-03T14:50:33.567Z,151315.59
2022-08-03T14:50:55.287Z,151379.66
2022-08-03T14:53:22.703Z,151346.34
2022-08-03T14:55:51.854Z,151380.88
2022-08-03T14:58:21.540Z,151356.25
2022-08-03T15:00:50.518Z,151375.97
2022-08-03T15:03:23.868Z,151277.38
2022-08-03T15:05:52.861Z,151257.63
2022-08-03T15:08:20.906Z,151306.97
2022-08-03T15:10:49.313Z,151477.03
2022-08-03T15:13:17.488Z,151629.88
2022-08-03T15:15:44.863Z,151633.59
2022-08-03T15:18:12.132Z,151617.53
2022-08-03T15:20:44.944Z,151557.16
2022-08-03T15:23:14.788Z,151607.69
2022-08-03T15:26:31.915Z,151644.72
2022-08-03T15:28:30.602Z,151356.25
2022-08-03T15:30:57.745Z,151208.41
2022-08-03T15:33:24.794Z,151210.84
2022-08-03T15:35:52.898Z,151373.47
2022-08-03T15:38:20.090Z,151438.81
2022-08-03T15:40:47.151Z,151459.78
2022-08-03T15:43:14.503Z,151489.31
2022-08-03T15:45:42.854Z,151599.06
2022-08-03T15:48:09.898Z,151610.13
2022-08-03T15:50:36.994Z,151543.59
2022-08-03T15:53:04.629Z,151629.88
2022-08-03T15:55:32.170Z,151706.31
2022-08-03T15:59:04.506Z,151649.63
2022-08-03T16:00:46.594Z,151548.53
2022-08-03T16:03:13.725Z,151372.25
2022-08-03T16:05:40.768Z,151314.34
2022-08-03T16:08:11.785Z,151258.84
2022-08-03T16:10:41.296Z,151201.00
2022-08-03T16:13:08.588Z,151134.47
2022-08-03T16:15:38.542Z,151107.38
2022-08-03T16:18:06.744Z,151092.56
2022-08-03T16:20:35.290Z,151090.13
2022-08-03T16:23:11.205Z,151087.63
2022-08-03T16:25:40.408Z,151109.81
2022-08-03T16:28:13.926Z,151319.31
2022-08-03T16:30:44.221Z,151726.09
2022-08-03T16:33:16.621Z,151909.84
2022-08-03T16:35:45.395Z,152120.84
2022-08-03T16:38:16.764Z,152318.25
2022-08-03T16:40:47.421Z,152520.75
2022-08-03T16:43:19.016Z,152682.59
2022-08-03T16:45:47.158Z,152860.47
2022-08-03T16:48:15.327Z,152923.47
2022-08-03T16:50:42.930Z,153042.13
2022-08-03T16:53:15.658Z,152913.59
2022-08-03T16:55:52.333Z,152958.09
2022-08-03T16:58:41.566Z,153190.47
2022-08-03T17:01:24.019Z,153044.56
2022-08-03T17:04:02.726Z,153195.41
2022-08-03T17:06:37.970Z,153131.13
2022-08-03T17:09:14.923Z,153040.84
2022-08-03T17:11:47.614Z,153166.97
2022-08-03T17:14:17.473Z,153244.81
2022-08-03T17:16:52.175Z,153311.63
2022-08-03T17:19:23.649Z,153373.41
2022-08-03T17:22:04.812Z,153500.81
2022-08-03T17:24:34.385Z,152908.66
2022-08-03T17:27:09.251Z,152468.94
2022-08-03T17:30:01.143Z,152094.88
2022-08-03T17:32:32.330Z,151908.63
2022-08-03T17:34:59.625Z,151888.91
2022-08-03T17:37:57.540Z,152177.59
2022-08-03T17:40:17.535Z,152671.50
2022-08-03T17:42:50.654Z,152725.78
2022-08-03T17:45:18.892Z,152515.84
2022-08-03T17:47:57.768Z,152088.72
2022-08-03T17:50:37.389Z,151743.31
2022-08-03T17:53:23.977Z,151534.97
2022-08-03T17:56:04.558Z,151373.47
2022-08-03T17:58:58.640Z,151292.19
2022-08-03T18:02:14.465Z,151198.50
2022-08-03T18:05:16.603Z,151118.44
2022-08-03T18:08:00.850Z,151050.72
2022-08-03T18:10:35.777Z,150991.59
2022-08-03T18:13:11.007Z,150943.56
2022-08-03T18:15:46.015Z,150922.66
2022-08-03T18:18:16.006Z,150868.44
2022-08-03T18:20:45.493Z,150842.59
2022-08-03T18:23:24.605Z,150822.91
2022-08-03T18:26:04.730Z,150792.13
2022-08-03T18:28:33.691Z,150750.28
2022-08-03T18:31:05.617Z,150728.13
2022-08-03T18:34:32.021Z,150677.69
2022-08-03T18:36:30.148Z,150646.91
2022-08-03T18:39:01.764Z,150592.75
2022-08-03T18:41:34.325Z,150610.03
2022-08-03T18:44:08.004Z,150579.22
2022-08-03T18:46:55.366Z,150532.47
2022-08-03T18:49:45.024Z,150494.34
2022-08-03T18:52:21.634Z,150466.03
2022-08-03T18:55:19.955Z,150410.69
2022-08-03T18:58:25.667Z,150315.97
2022-08-03T19:01:57.870Z,150260.63
2022-08-03T19:04:02.966Z,150141.34
2022-08-03T19:06:31.732Z,150172.09
2022-08-03T19:09:06.788Z,150136.44
2022-08-03T19:12:10.970Z,150105.75
2022-08-03T19:14:39.234Z,150088.53
2022-08-03T19:17:10.630Z,149963.19
2022-08-03T19:19:43.418Z,150063.97
2022-08-03T19:22:15.961Z,150029.50
2022-08-03T19:24:45.665Z,150022.16
2022-08-03T19:27:14.140Z,149936.16
2022-08-03T19:29:59.142Z,149977.91
2022-08-03T19:32:29.404Z,149958.28
2022-08-03T19:37:45.363Z,149903.00
2022-08-03T19:40:12.655Z,149835.38
2022-08-03T19:42:44.417Z,149812.06
2022-08-03T19:45:17.050Z,149805.94
2022-08-03T19:47:56.525Z,149791.16
2022-08-03T19:50:25.586Z,149754.31
2022-08-03T19:52:53.144Z,149656.06
2022-08-03T19:55:20.339Z,149751.88
2022-08-03T19:57:49.023Z,149685.50
2022-08-03T20:00:20.029Z,149697.78
2022-08-03T20:02:53.842Z,149658.53
2022-08-03T20:05:21.315Z,149667.09
2022-08-03T20:07:50.154Z,149648.69
2022-08-03T20:10:18.806Z,149640.13
2022-08-03T20:12:48.363Z,149616.81
2022-08-03T20:15:18.128Z,149584.88
2022-08-03T20:17:56.662Z,149582.41
2022-08-03T20:20:30.788Z,149560.25
2022-08-03T20:23:00.756Z,149556.56
2022-08-03T20:25:38.027Z,149525.91
2022-08-03T20:28:15.155Z,149525.91
2022-08-03T20:30:47.301Z,149513.63
2022-08-03T20:33:18.571Z,149486.63
2022-08-03T20:35:49.162Z,149421.59
2022-08-03T20:38:18.432Z,149435.09
2022-08-03T20:40:47.356Z,149393.31
2022-08-03T20:43:15.584Z,149409.31
2022-08-03T20:46:00.811Z,149381.03
2022-08-03T20:48:30.190Z,149332.00
2022-08-03T20:50:57.311Z,149329.53
2022-08-03T20:53:31.149Z,149296.41
2022-08-03T20:56:14.518Z,149280.47
2022-08-03T20:58:42.453Z,149314.81
2022-08-03T21:01:17.693Z,149271.91
2022-08-03T21:03:55.573Z,149233.78
2022-08-03T21:06:27.694Z,149209.28
2022-08-03T21:09:03.853Z,149201.91
2022-08-03T21:11:50.257Z,149174.97
2022-08-03T21:13:02.505Z,149863.63
2022-08-03T21:14:27.849Z,149174.97
2022-08-03T21:16:58.402Z,149143.06
2022-08-03T21:19:30.306Z,149128.31
2022-08-03T21:21:59.191Z,149123.41
2022-08-03T21:24:30.385Z,149103.81
2022-08-03T21:26:58.260Z,149108.72
2022-08-03T21:29:26.714Z,149071.88
2022-08-03T21:31:54.249Z,149049.81
2022-08-03T21:34:21.509Z,149032.69
2022-08-03T21:36:49.218Z,149005.69
2022-08-03T21:39:16.366Z,148981.16
2022-08-03T21:41:43.532Z,148961.56
2022-08-03T21:44:10.915Z,148966.44
2022-08-03T21:46:40.605Z,148952.97
2022-08-03T21:50:04.478Z,148939.47
2022-08-03T21:51:59.503Z,148941.94
2022-08-03T21:54:33.357Z,148924.78
2022-08-03T21:57:03.853Z,148883.06
2022-08-03T21:59:38.021Z,148880.66
2022-08-03T22:02:20.835Z,148913.78
2022-08-03T22:04:55.753Z,148910.09
2022-08-03T22:07:29.131Z,148892.88
2022-08-03T22:09:57.578Z,148886.75
2022-08-03T22:12:26.884Z,148885.53
2022-08-03T22:15:01.430Z,148831.59
2022-08-03T22:17:55.079Z,148785.06
2022-08-03T22:20:20.737Z,148771.56
2022-08-03T22:22:56.117Z,148763.00
2022-08-03T22:25:29.789Z,148658.81
2022-08-03T22:28:01.287Z,148726.25
2022-08-03T22:30:29.052Z,148716.41
2022-08-03T22:32:57.349Z,148690.66
2022-08-03T22:35:27.326Z,148671.06
2022-08-03T22:37:57.269Z,148664.97
2022-08-03T22:40:25.902Z,148639.22
2022-08-03T22:42:54.248Z,148644.13
2022-08-03T22:46:06.876Z,148633.09
2022-08-03T22:48:08.579Z,148609.84
2022-08-03T22:50:35.838Z,148531.41
2022-08-03T22:53:03.452Z,148584.09
2022-08-03T22:55:31.054Z,148564.53
2022-08-03T22:57:58.317Z,148542.47
2022-08-03T23:00:25.463Z,148535.06
2022-08-03T23:02:54.722Z,148456.69
2022-08-03T23:06:02.103Z,148532.63
2022-08-03T23:08:14.897Z,148500.78
2022-08-03T23:10:46.779Z,148519.16
2022-08-03T23:13:17.146Z,148504.47
2022-08-03T23:15:51.110Z,148471.44
2022-08-03T23:18:21.880Z,148468.97
2022-08-03T23:20:53.094Z,148476.31
2022-08-03T23:23:20.937Z,148434.69
2022-08-03T23:25:50.547Z,148410.19
2022-08-03T23:28:18.628Z,148356.31
2022-08-03T23:30:46.780Z,148337.91
2022-08-03T23:33:16.337Z,148385.72
2022-08-03T23:36:18.668Z,148397.97
2022-08-03T23:38:49.161Z,148384.50
2022-08-03T23:41:17.468Z,148375.94
2022-08-03T23:43:53.869Z,148320.81
2022-08-03T23:46:22.573Z,148342.84
2022-08-03T23:48:50.745Z,148317.13
2022-08-03T23:51:49.379Z,148319.56
2022-08-03T23:54:36.926Z,148324.50
2022-08-03T23:57:49.880Z,148312.22
